createdAt,value
2018-04-19T00:02:05.619Z,36.70
2018-04-19T00:04:34.659Z,35.77
2018-04-19T00:07:02.898Z,35.93
2018-04-19T00:09:37.636Z,44.10
2018-04-19T00:12:05.868Z,40.77
2018-04-19T00:14:34.103Z,39.07
2018-04-19T00:17:02.354Z,42.07
2018-04-19T00:19:30.606Z,45.77
2018-04-19T00:21:59.671Z,48.47
2018-04-19T00:24:27.911Z,39.37
2018-04-19T00:26:56.167Z,39.07
2018-04-19T00:29:24.395Z,41.67
2018-04-19T00:31:52.656Z,40.43
2018-04-19T00:34:26.575Z,39.73
2018-04-19T00:36:54.800Z,37.30
2018-04-19T00:39:23.036Z,40.77
2018-04-19T00:41:51.288Z,38.27
2018-04-19T00:44:19.533Z,43.07
2018-04-19T00:46:47.793Z,49.67
2018-04-19T00:49:16.028Z,48.83
2018-04-19T00:51:44.283Z,46.87
2018-04-19T00:54:12.538Z,42.10
2018-04-19T00:56:41.166Z,47.67
2018-04-19T00:59:09.383Z,38.57
2018-04-19T01:01:37.642Z,33.87
2018-04-19T01:04:05.875Z,34.87
2018-04-19T01:06:34.113Z,35.37
2018-04-19T01:09:02.742Z,33.07
2018-04-19T01:11:30.947Z,32.50
2018-04-19T01:13:59.203Z,33.57
2018-04-19T01:16:28.211Z,35.57
2018-04-19T01:18:56.471Z,36.57
2018-04-19T01:21:25.474Z,42.13
2018-04-19T01:23:53.736Z,42.60
2018-04-19T01:26:22.739Z,46.03
2018-04-19T01:28:50.991Z,40.27
2018-04-19T01:31:20.000Z,39.87
2018-04-19T01:33:49.011Z,49.37
2018-04-19T01:36:24.903Z,45.90
2018-04-19T01:38:53.146Z,46.63
2018-04-19T01:41:21.380Z,53.53
2018-04-19T01:43:50.499Z,50.80
2018-04-19T01:46:18.739Z,53.07
2018-04-19T01:48:46.987Z,50.47
2018-04-19T01:51:15.225Z,49.70
2018-04-19T01:53:43.470Z,51.33
2018-04-19T01:56:12.965Z,39.63
2018-04-19T01:58:41.184Z,44.20
2018-04-19T02:01:09.423Z,45.33
2018-04-19T02:03:38.435Z,50.50
2018-04-19T02:06:06.676Z,42.40
2018-04-19T02:08:34.923Z,44.27
2018-04-19T02:11:03.158Z,49.23
2018-04-19T02:13:31.410Z,41.00
2018-04-19T02:16:00.417Z,45.67
2018-04-19T02:18:28.682Z,47.50
2018-04-19T02:20:57.670Z,41.03
2018-04-19T02:23:26.691Z,41.80
2018-04-19T02:25:54.927Z,45.13
2018-04-19T02:28:23.972Z,42.73
2018-04-19T02:30:52.195Z,43.60
2018-04-19T02:33:21.200Z,50.37
2018-04-19T02:35:50.210Z,45.70
2018-04-19T02:38:18.451Z,37.40
2018-04-19T02:40:47.475Z,56.67
2018-04-19T02:43:15.695Z,49.13
2018-04-19T02:45:43.975Z,47.27
2018-04-19T02:48:12.207Z,44.13
2018-04-19T02:50:40.468Z,44.50
2018-04-19T02:53:08.955Z,48.50
2018-04-19T02:55:37.944Z,44.30
2018-04-19T02:58:06.191Z,37.90
2018-04-19T03:00:35.201Z,33.33
2018-04-19T03:03:03.437Z,29.23
2018-04-19T03:05:31.683Z,36.90
2018-04-19T03:07:59.915Z,36.60
2018-04-19T03:10:28.927Z,41.27
2018-04-19T03:12:57.158Z,42.77
2018-04-19T03:15:25.392Z,34.43
2018-04-19T03:17:53.623Z,35.13
2018-04-19T03:20:22.641Z,37.23
2018-04-19T03:22:50.864Z,41.90
2018-04-19T03:25:19.115Z,38.70
2018-04-19T03:27:47.348Z,51.03
2018-04-19T03:30:15.584Z,49.13
2018-04-19T03:32:43.816Z,37.63
2018-04-19T03:35:12.057Z,48.33
2018-04-19T03:37:41.057Z,41.07
2018-04-19T03:40:10.063Z,35.13
2018-04-19T03:42:38.293Z,39.93
2018-04-19T03:45:06.541Z,47.57
2018-04-19T03:47:34.767Z,51.60
2018-04-19T03:50:03.789Z,52.27
2018-04-19T03:52:32.018Z,48.77
2018-04-19T03:55:01.028Z,47.53
2018-04-19T03:57:29.251Z,47.83
2018-04-19T03:59:58.271Z,46.23
2018-04-19T04:02:26.506Z,48.50
2018-04-19T04:04:54.746Z,48.63
2018-04-19T04:07:22.980Z,45.13
2018-04-19T04:09:51.678Z,41.53
2018-04-19T04:12:19.883Z,46.53
2018-04-19T04:14:48.111Z,48.03
2018-04-19T04:17:28.251Z,42.63
2018-04-19T04:20:04.472Z,45.23
2018-04-19T04:25:33.379Z,38.57
2018-04-19T04:28:01.610Z,42.53
2018-04-19T04:30:29.853Z,36.80
2018-04-19T04:32:58.083Z,44.83
2018-04-19T04:35:27.091Z,44.90
2018-04-19T04:37:55.331Z,42.87
2018-04-19T04:40:24.339Z,42.27
2018-04-19T04:42:52.579Z,36.67
2018-04-19T04:45:20.831Z,33.83
2018-04-19T04:47:49.165Z,29.20
2018-04-19T04:50:17.364Z,39.37
2018-04-19T04:52:45.598Z,54.83
2018-04-19T04:55:14.610Z,61.67
2018-04-19T04:57:42.848Z,47.27
2018-04-19T05:00:11.132Z,49.80
2018-04-19T05:02:39.334Z,47.97
2018-04-19T05:05:07.562Z,50.77
2018-04-19T05:07:35.799Z,44.17
2018-04-19T05:10:04.031Z,39.00
2018-04-19T05:12:33.039Z,41.07
2018-04-19T05:15:01.270Z,42.80
2018-04-19T05:17:29.519Z,45.47
2018-04-19T05:19:57.760Z,50.23
2018-04-19T05:22:26.008Z,52.90
2018-04-19T05:24:54.230Z,62.87
2018-04-19T05:27:22.479Z,59.50
2018-04-19T05:29:50.718Z,58.63
2018-04-19T05:32:18.986Z,69.53
2018-04-19T05:34:47.211Z,70.13
2018-04-19T05:37:15.479Z,90.13
2018-04-19T05:39:44.466Z,81.73
2018-04-19T05:42:13.488Z,62.00
2018-04-19T05:44:41.714Z,75.23
2018-04-19T05:47:10.728Z,91.63
2018-04-19T05:49:38.973Z,95.13
2018-04-19T05:52:07.376Z,90.37
2018-04-19T05:54:35.590Z,96.43
2018-04-19T05:57:03.847Z,100.40
2018-04-19T05:59:32.481Z,92.47
2018-04-19T06:02:00.706Z,93.77
2018-04-19T06:04:28.952Z,85.23
2018-04-19T06:06:57.968Z,92.33
2018-04-19T06:09:26.202Z,83.73
2018-04-19T06:11:55.215Z,69.87
2018-04-19T06:14:23.461Z,68.30
2018-04-19T06:16:51.710Z,73.87
2018-04-19T06:19:19.949Z,58.00
2018-04-19T06:21:48.215Z,60.47
2018-04-19T06:24:16.453Z,57.70
2018-04-19T06:26:44.703Z,61.53
2018-04-19T06:29:12.944Z,49.30
2018-04-19T06:31:41.199Z,46.40
2018-04-19T06:34:10.199Z,48.47
2018-04-19T06:36:38.852Z,45.63
2018-04-19T06:39:08.821Z,42.83
2018-04-19T06:41:38.156Z,44.33
2018-04-19T06:44:06.364Z,40.30
2018-04-19T06:46:34.621Z,38.50
2018-04-19T06:49:03.624Z,37.77
2018-04-19T06:51:32.639Z,36.10
2018-04-19T06:54:00.880Z,37.17
2018-04-19T06:56:29.897Z,36.50
2018-04-19T06:58:58.140Z,34.00
2018-04-19T07:01:26.400Z,37.00
2018-04-19T07:03:54.637Z,36.13
2018-04-19T07:06:22.995Z,33.10
2018-04-19T07:08:51.242Z,34.13
2018-04-19T07:11:20.244Z,34.70
2018-04-19T07:13:49.268Z,33.17
2018-04-19T07:16:17.509Z,31.33
2018-04-19T07:18:46.588Z,30.83
2018-04-19T07:21:17.707Z,30.97
2018-04-19T07:23:46.011Z,29.10
2018-04-19T07:26:15.016Z,30.23
2018-04-19T07:28:44.048Z,29.87
2018-04-19T07:31:12.291Z,28.47
2018-04-19T07:33:40.574Z,30.03
2018-04-19T07:36:08.831Z,28.03
2018-04-19T07:38:37.091Z,29.03
2018-04-19T07:41:06.103Z,29.00
2018-04-19T07:43:34.384Z,26.43
2018-04-19T07:46:02.636Z,27.60
2018-04-19T07:48:30.859Z,30.63
2018-04-19T07:50:59.127Z,26.97
2018-04-19T07:53:27.374Z,25.03
2018-04-19T07:55:55.617Z,26.67
2018-04-19T07:58:23.871Z,26.77
2018-04-19T08:00:52.898Z,28.67
2018-04-19T08:03:21.903Z,25.40
2018-04-19T08:05:50.164Z,30.10
2018-04-19T08:08:19.170Z,26.73
2018-04-19T08:10:47.427Z,26.67
2018-04-19T08:13:16.435Z,23.53
2018-04-19T08:15:44.693Z,22.50
2018-04-19T08:18:13.700Z,23.83
2018-04-19T08:20:42.737Z,19.93
2018-04-19T08:23:10.960Z,23.00
2018-04-19T08:25:39.968Z,22.17
2018-04-19T08:28:08.233Z,21.60
2018-04-19T08:30:37.234Z,20.00
2018-04-19T08:33:05.892Z,20.63
2018-04-19T08:35:34.904Z,21.27
2018-04-19T08:38:03.146Z,19.23
2018-04-19T08:40:31.387Z,22.67
2018-04-19T08:42:59.618Z,19.07
2018-04-19T08:45:27.868Z,19.60
2018-04-19T08:47:56.104Z,22.13
2018-04-19T08:50:24.358Z,16.53
2018-04-19T08:52:52.600Z,18.43
2018-04-19T08:55:21.603Z,20.33
2018-04-19T08:57:50.619Z,17.93
2018-04-19T09:00:18.857Z,19.12
2018-04-19T09:02:47.907Z,19.98
2018-04-19T09:05:16.102Z,21.77
2018-04-19T09:07:44.359Z,18.40
2018-04-19T09:10:12.600Z,18.95
2018-04-19T09:12:40.848Z,19.45
2018-04-19T09:15:09.846Z,18.83
2018-04-19T09:17:38.863Z,19.40
2018-04-19T09:20:07.102Z,16.98
2018-04-19T09:22:36.119Z,18.52
2018-04-19T09:25:04.358Z,18.85
2018-04-19T09:27:32.607Z,18.55
2018-04-19T09:30:00.896Z,18.42
2018-04-19T09:32:29.150Z,16.98
2018-04-19T09:34:57.389Z,17.17
2018-04-19T09:37:25.638Z,20.33
2018-04-19T09:39:54.654Z,18.62
2018-04-19T09:42:22.895Z,16.98
2018-04-19T09:44:51.136Z,14.80
2018-04-19T09:47:19.391Z,19.58
2018-04-19T09:49:47.625Z,16.67
2018-04-19T09:52:16.653Z,14.57
2018-04-19T09:54:44.878Z,15.70
2018-04-19T09:57:13.183Z,13.30
2018-04-19T09:59:41.456Z,12.55
2018-04-19T10:02:10.507Z,13.20
2018-04-19T10:04:38.793Z,16.15
2018-04-19T10:07:07.084Z,12.02
2018-04-19T10:09:36.127Z,14.82
2018-04-19T10:12:04.404Z,17.75
2018-04-19T10:14:32.681Z,15.13
2018-04-19T10:17:00.967Z,14.77
2018-04-19T10:19:29.231Z,15.65
2018-04-19T10:21:57.523Z,14.65
2018-04-19T10:24:25.794Z,10.40
2018-04-19T10:26:54.069Z,11.80
2018-04-19T10:29:22.338Z,11.15
2018-04-19T10:31:50.628Z,13.62
2018-04-19T10:34:18.937Z,10.48
2018-04-19T10:36:47.177Z,10.13
2018-04-19T10:39:15.443Z,10.77
2018-04-19T10:41:43.723Z,9.55
2018-04-19T10:44:11.983Z,8.98
2018-04-19T10:46:40.268Z,10.60
2018-04-19T10:49:08.533Z,9.77
2018-04-19T10:51:36.791Z,9.85
2018-04-19T10:54:05.082Z,9.65
2018-04-19T10:56:33.338Z,12.32
2018-04-19T10:59:01.623Z,13.80
2018-04-19T11:01:29.891Z,19.15
2018-04-19T11:03:58.179Z,17.25
2018-04-19T11:06:26.448Z,19.95
2018-04-19T11:08:54.751Z,17.08
2018-04-19T11:11:23.020Z,14.18
2018-04-19T11:13:51.363Z,17.80
2018-04-19T11:16:20.373Z,16.77
2018-04-19T11:18:48.659Z,22.08
2018-04-19T11:21:16.931Z,22.17
2018-04-19T11:23:45.217Z,22.65
2018-04-19T11:26:13.490Z,18.67
2018-04-19T11:28:41.782Z,19.02
2018-04-19T11:31:10.822Z,17.85
2018-04-19T11:33:39.110Z,23.45
2018-04-19T11:36:07.383Z,25.42
2018-04-19T11:38:35.676Z,20.48
2018-04-19T11:41:03.957Z,18.85
2018-04-19T11:43:32.242Z,18.25
2018-04-19T11:46:00.515Z,20.48
2018-04-19T11:48:28.799Z,19.83
2018-04-19T11:50:57.840Z,18.73
2018-04-19T11:53:26.131Z,17.67
2018-04-19T11:55:54.395Z,18.37
2018-04-19T11:58:22.684Z,16.60
2018-04-19T12:00:50.958Z,17.35
2018-04-19T12:03:19.252Z,19.12
2018-04-19T12:05:47.519Z,19.77
2018-04-19T12:08:15.806Z,17.83
2018-04-19T12:10:44.079Z,14.95
2018-04-19T12:13:12.363Z,14.50
2018-04-19T12:15:41.412Z,16.80
2018-04-19T12:18:09.695Z,14.52
2018-04-19T12:20:37.966Z,13.38
2018-04-19T12:23:06.275Z,12.85
2018-04-19T12:25:34.551Z,13.35
2018-04-19T12:28:02.835Z,14.18
2018-04-19T12:30:31.873Z,19.83
2018-04-19T12:33:00.160Z,19.73
2018-04-19T12:35:28.437Z,20.10
2018-04-19T12:37:56.715Z,19.33
2018-04-19T12:40:25.248Z,18.80
2018-04-19T12:42:54.332Z,18.92
2018-04-19T12:45:23.377Z,18.48
2018-04-19T12:47:51.660Z,21.45
2018-04-19T12:50:19.931Z,18.02
2018-04-19T12:52:48.212Z,21.10
2018-04-19T12:55:16.517Z,22.90
2018-04-19T12:57:45.551Z,23.27
2018-04-19T13:00:13.834Z,20.77
2018-04-19T13:02:42.102Z,23.40
2018-04-19T13:05:10.393Z,22.15
2018-04-19T13:07:38.663Z,21.27
2018-04-19T13:10:06.950Z,19.65
2018-04-19T13:12:35.219Z,19.45
2018-04-19T13:15:03.506Z,19.17
2018-04-19T13:17:31.788Z,19.73
2018-04-19T13:20:00.073Z,20.40
2018-04-19T13:22:28.344Z,21.52
2018-04-19T13:24:56.642Z,19.25
2018-04-19T13:27:25.677Z,20.50
2018-04-19T13:29:53.971Z,19.77
2018-04-19T13:32:22.253Z,16.87
2018-04-19T13:34:50.539Z,21.35
2018-04-19T13:37:18.808Z,17.62
2018-04-19T13:39:47.126Z,15.95
2018-04-19T13:42:16.137Z,17.90
2018-04-19T13:44:44.418Z,16.25
2018-04-19T13:47:12.682Z,14.35
2018-04-19T13:49:40.975Z,15.60
2018-04-19T13:52:09.256Z,15.88
2018-04-19T13:54:37.604Z,15.48
2018-04-19T13:57:05.870Z,13.90
2018-04-19T13:59:34.157Z,14.93
2018-04-19T14:02:02.478Z,13.80
2018-04-19T14:04:30.707Z,13.07
2018-04-19T14:06:58.979Z,11.73
2018-04-19T14:09:27.257Z,12.95
2018-04-19T14:11:55.523Z,10.73
2018-04-19T14:14:23.811Z,13.40
2018-04-19T14:16:52.072Z,13.27
2018-04-19T14:19:20.354Z,14.10
2018-04-19T14:21:48.636Z,14.95
2018-04-19T14:24:16.923Z,11.30
2018-04-19T14:26:45.192Z,12.63
2018-04-19T14:29:13.475Z,11.52
2018-04-19T14:31:42.511Z,13.48
2018-04-19T14:34:11.563Z,14.50
2018-04-19T14:36:39.949Z,11.48
2018-04-19T14:39:08.254Z,12.85
2018-04-19T14:41:37.284Z,16.02
2018-04-19T14:44:05.601Z,14.35
2018-04-19T14:46:33.878Z,17.73
2018-04-19T14:49:02.187Z,12.35
2018-04-19T14:51:30.454Z,11.12
2018-04-19T14:53:58.739Z,13.48
2018-04-19T14:56:27.027Z,11.52
2018-04-19T14:58:55.307Z,12.70
2018-04-19T15:01:23.588Z,11.88
2018-04-19T15:03:51.855Z,14.98
2018-04-19T15:06:22.022Z,11.48
2018-04-19T15:08:50.284Z,11.02
2018-04-19T15:11:18.582Z,10.35
2018-04-19T15:13:47.615Z,11.30
2018-04-19T15:16:15.897Z,10.45
2018-04-19T15:18:44.158Z,11.15
2018-04-19T15:21:12.439Z,9.65
2018-04-19T15:23:40.704Z,9.63
2018-04-19T15:26:08.978Z,11.43
2018-04-19T15:28:37.244Z,9.50
2018-04-19T15:31:05.523Z,10.60
2018-04-19T15:33:33.791Z,11.00
2018-04-19T15:36:02.071Z,12.43
2018-04-19T15:38:30.354Z,14.10
2018-04-19T15:40:58.636Z,15.50
2018-04-19T15:43:26.914Z,15.93
2018-04-19T15:45:55.197Z,16.80
2018-04-19T15:48:23.472Z,14.95
2018-04-19T15:50:51.755Z,16.87
2018-04-19T15:53:20.032Z,17.45
2018-04-19T15:55:48.353Z,19.25
2018-04-19T15:58:17.389Z,18.65
2018-04-19T16:00:45.688Z,18.42
2018-04-19T16:03:13.962Z,22.27
2018-04-19T16:05:42.247Z,22.30
2018-04-19T16:08:10.522Z,23.33
2018-04-19T16:10:38.804Z,22.98
2018-04-19T16:13:07.078Z,24.08
2018-04-19T16:15:35.372Z,22.58
2018-04-19T16:18:04.416Z,24.30
2018-04-19T16:20:32.709Z,25.12
2018-04-19T16:23:00.976Z,25.88
2018-04-19T16:25:29.264Z,28.20
2018-04-19T16:27:57.537Z,25.92
2018-04-19T16:30:25.819Z,25.95
2018-04-19T16:32:54.871Z,30.37
2018-04-19T16:35:23.155Z,26.25
2018-04-19T16:37:51.448Z,27.70
2018-04-19T16:40:19.739Z,29.93
2018-04-19T16:42:48.768Z,25.77
2018-04-19T16:45:17.062Z,26.60
2018-04-19T16:47:45.332Z,25.70
2018-04-19T16:50:13.630Z,24.77
2018-04-19T16:52:41.892Z,25.60
2018-04-19T16:55:10.177Z,25.13
2018-04-19T16:57:38.465Z,25.43
2018-04-19T17:00:06.738Z,27.03
2018-04-19T17:02:35.023Z,25.93
2018-04-19T17:05:03.304Z,24.17
2018-04-19T17:07:32.355Z,27.23
2018-04-19T17:10:00.623Z,21.00
2018-04-19T17:12:28.911Z,23.47
2018-04-19T17:14:57.184Z,27.07
2018-04-19T17:17:25.479Z,25.87
2018-04-19T17:19:53.745Z,25.63
2018-04-19T17:22:22.063Z,24.67
2018-04-19T17:24:50.343Z,23.73
2018-04-19T17:27:19.390Z,21.13
2018-04-19T17:29:47.673Z,21.37
2018-04-19T17:32:15.954Z,16.83
2018-04-19T17:34:44.224Z,20.57
2018-04-19T17:37:12.507Z,17.73
2018-04-19T17:39:40.782Z,16.53
2018-04-19T17:42:09.073Z,14.97
2018-04-19T17:44:38.108Z,15.40
2018-04-19T17:47:06.401Z,15.90
2018-04-19T17:49:35.449Z,16.23
2018-04-19T17:52:03.759Z,17.13
2018-04-19T17:54:32.048Z,18.93
2018-04-19T17:57:00.351Z,22.43
2018-04-19T17:59:29.403Z,23.77
2018-04-19T18:01:57.752Z,20.73
2018-04-19T18:04:26.218Z,21.10
2018-04-19T18:06:54.522Z,21.77
2018-04-19T18:09:22.783Z,24.83
2018-04-19T18:11:51.170Z,20.70
2018-04-19T18:14:19.443Z,24.97
2018-04-19T18:16:47.723Z,22.60
2018-04-19T18:19:15.990Z,23.57
2018-04-19T18:21:44.298Z,22.53
2018-04-19T18:24:12.575Z,24.60
2018-04-19T18:26:40.856Z,26.73
2018-04-19T18:29:09.130Z,25.63
2018-04-19T18:31:37.417Z,23.50
2018-04-19T18:34:05.729Z,27.13
2018-04-19T18:36:34.017Z,23.47
2018-04-19T18:39:02.287Z,26.03
2018-04-19T18:41:30.575Z,25.27
2018-04-19T18:43:58.843Z,29.13
2018-04-19T18:46:27.127Z,25.00
2018-04-19T18:48:55.415Z,26.77
2018-04-19T18:51:23.716Z,25.20
2018-04-19T18:53:51.979Z,29.40
2018-04-19T18:56:20.260Z,29.20
2018-04-19T18:58:48.562Z,27.97
2018-04-19T19:01:16.844Z,26.17
2018-04-19T19:03:45.135Z,26.87
2018-04-19T19:06:13.403Z,29.10
2018-04-19T19:08:41.690Z,25.90
2018-04-19T19:11:09.963Z,27.47
2018-04-19T19:13:38.243Z,32.03
2018-04-19T19:16:10.028Z,27.67
2018-04-19T19:18:50.239Z,29.90
2018-04-19T19:21:18.521Z,28.83
2018-04-19T19:23:46.815Z,28.80
2018-04-19T19:26:15.079Z,31.90
2018-04-19T19:28:43.360Z,30.57
2018-04-19T19:31:11.634Z,28.10
2018-04-19T19:33:39.926Z,27.07
2018-04-19T19:36:08.194Z,29.63
2018-04-19T19:38:36.480Z,31.63
2018-04-19T19:41:04.751Z,33.40
2018-04-19T19:43:33.031Z,28.70
2018-04-19T19:46:01.313Z,33.00
2018-04-19T19:48:29.599Z,29.03
2018-04-19T19:50:57.865Z,32.20
2018-04-19T19:53:26.144Z,33.57
2018-04-19T19:55:54.424Z,31.10
2018-04-19T19:58:23.472Z,30.17
2018-04-19T20:00:51.742Z,32.40
2018-04-19T20:03:20.023Z,29.00
2018-04-19T20:05:48.365Z,30.70
2018-04-19T20:08:16.584Z,30.10
2018-04-19T20:10:44.873Z,31.30
2018-04-19T20:13:13.163Z,31.80
2018-04-19T20:15:41.438Z,36.03
2018-04-19T20:18:09.722Z,32.40
2018-04-19T20:20:39.126Z,31.13
2018-04-19T20:23:07.423Z,35.33
2018-04-19T20:25:35.694Z,31.10
2018-04-19T20:28:03.982Z,31.83
2018-04-19T20:30:32.255Z,30.37
2018-04-19T20:33:00.540Z,34.27
2018-04-19T20:35:28.819Z,33.07
2018-04-19T20:37:57.108Z,34.20
2018-04-19T20:40:25.379Z,33.57
2018-04-19T20:42:53.663Z,34.00
2018-04-19T20:45:21.934Z,33.23
2018-04-19T20:47:50.313Z,31.53
2018-04-19T20:50:18.579Z,33.67
2018-04-19T20:52:46.862Z,32.87
2018-04-19T20:55:15.139Z,32.43
2018-04-19T20:57:43.432Z,35.27
2018-04-19T21:00:11.704Z,36.63
2018-04-19T21:02:39.993Z,34.37
2018-04-19T21:05:09.027Z,34.00
2018-04-19T21:07:37.317Z,33.23
2018-04-19T21:10:05.581Z,33.53
2018-04-19T21:12:33.843Z,33.87
2018-04-19T21:15:02.131Z,33.00
2018-04-19T21:17:30.403Z,34.17
2018-04-19T21:19:58.687Z,32.87
2018-04-19T21:22:26.959Z,31.27
2018-04-19T21:24:55.243Z,30.83
2018-04-19T21:27:23.507Z,32.20
2018-04-19T21:29:52.562Z,37.00
2018-04-19T21:32:21.601Z,30.80
2018-04-19T21:34:49.896Z,31.13
2018-04-19T21:37:18.167Z,32.83
2018-04-19T21:39:46.522Z,36.00
2018-04-19T21:42:15.559Z,35.07
2018-04-19T21:44:44.611Z,34.00
2018-04-19T21:47:12.922Z,32.07
2018-04-19T21:49:41.180Z,34.63
2018-04-19T21:52:10.967Z,31.57
2018-04-19T21:54:39.242Z,35.20
2018-04-19T21:57:07.516Z,34.43
2018-04-19T21:59:35.798Z,32.70
2018-04-19T22:02:04.066Z,31.33
2018-04-19T22:04:32.355Z,33.90
2018-04-19T22:07:00.623Z,34.20
2018-04-19T22:09:28.907Z,30.87
2018-04-19T22:11:57.179Z,38.33
2018-04-19T22:14:25.455Z,35.17
2018-04-19T22:16:53.739Z,32.47
2018-04-19T22:19:22.042Z,29.70
2018-04-19T22:21:51.084Z,29.53
2018-04-19T22:24:19.364Z,32.33
2018-04-19T22:26:47.635Z,30.30
2018-04-19T22:29:15.919Z,31.73
2018-04-19T22:31:44.195Z,33.27
2018-04-19T22:34:12.475Z,30.97
2018-04-19T22:36:40.752Z,32.57
2018-04-19T22:39:09.026Z,37.03
2018-04-19T22:41:37.299Z,34.97
2018-04-19T22:44:05.589Z,35.63
2018-04-19T22:46:33.859Z,36.63
2018-04-19T22:49:02.146Z,33.30
2018-04-19T22:51:31.178Z,31.73
2018-04-19T22:53:59.468Z,30.00
2018-04-19T22:56:27.740Z,28.27
2018-04-19T22:58:56.028Z,27.90
2018-04-19T23:01:24.300Z,36.27
2018-04-19T23:03:52.578Z,34.27
2018-04-19T23:06:20.855Z,33.30
2018-04-19T23:08:49.134Z,34.93
2018-04-19T23:11:17.408Z,30.70
2018-04-19T23:13:45.682Z,34.83
2018-04-19T23:16:13.969Z,32.57
2018-04-19T23:18:42.234Z,36.00
2018-04-19T23:21:10.519Z,37.50
2018-04-19T23:23:38.794Z,37.30
2018-04-19T23:26:07.077Z,34.40
2018-04-19T23:28:35.387Z,40.33
2018-04-19T23:31:03.681Z,37.70
2018-04-19T23:33:31.961Z,31.73
2018-04-19T23:36:00.235Z,32.10
2018-04-19T23:38:28.509Z,27.70
2018-04-19T23:40:56.787Z,28.07
2018-04-19T23:43:25.063Z,34.63
2018-04-19T23:45:53.347Z,34.97
2018-04-19T23:48:21.619Z,33.63
2018-04-19T23:50:49.906Z,32.77
2018-04-19T23:53:18.175Z,33.43
2018-04-19T23:55:46.455Z,36.57
2018-04-19T23:58:14.728Z,34.80
